createdAt,value
2019-02-21T00:00:05.041Z,8.20
2019-02-21T00:02:34.021Z,8.20
2019-02-21T00:05:02.653Z,8.20
2019-02-21T00:07:31.889Z,8.20
2019-02-21T00:10:00.538Z,8.20
2019-02-21T00:12:29.161Z,8.20
2019-02-21T00:14:57.729Z,8.10
2019-02-21T00:17:26.326Z,8.10
2019-02-21T00:19:54.926Z,8.10
2019-02-21T00:22:23.489Z,8.10
2019-02-21T00:24:52.103Z,8.10
2019-02-21T00:27:20.676Z,8.10
2019-02-21T00:29:49.272Z,8.10
2019-02-21T00:32:17.837Z,8.10
2019-02-21T00:34:46.474Z,8.10
2019-02-21T00:37:15.089Z,8.10
2019-02-21T00:39:43.717Z,8.10
2019-02-21T00:42:12.317Z,8.10
2019-02-21T00:44:40.876Z,8.10
2019-02-21T00:47:09.493Z,8.20
2019-02-21T00:49:38.161Z,8.10
2019-02-21T00:52:06.681Z,8.00
2019-02-21T00:54:35.272Z,8.00
2019-02-21T00:57:03.917Z,8.00
2019-02-21T00:59:32.637Z,8.00
2019-02-21T01:02:01.254Z,8.00
2019-02-21T01:04:29.815Z,8.00
2019-02-21T01:06:58.564Z,8.00
2019-02-21T01:09:27.129Z,8.00
2019-02-21T01:11:55.693Z,8.10
2019-02-21T01:14:24.289Z,8.10
2019-02-21T01:16:52.866Z,8.10
2019-02-21T01:19:21.468Z,8.10
2019-02-21T01:21:50.039Z,8.00
2019-02-21T01:24:18.640Z,8.10
2019-02-21T01:26:47.209Z,8.00
2019-02-21T01:29:15.837Z,8.00
2019-02-21T01:31:44.437Z,8.00
2019-02-21T01:34:13.011Z,8.00
2019-02-21T01:36:42.471Z,8.00
2019-02-21T01:39:11.040Z,8.10
2019-02-21T01:41:39.605Z,8.00
2019-02-21T01:44:08.193Z,8.10
2019-02-21T01:46:36.772Z,8.10
2019-02-21T01:49:05.337Z,8.10
2019-02-21T01:51:33.936Z,8.10
2019-02-21T01:54:02.525Z,8.10
2019-02-21T01:56:31.372Z,8.10
2019-02-21T01:59:00.048Z,8.10
2019-02-21T02:01:28.792Z,8.10
2019-02-21T02:03:57.364Z,8.10
2019-02-21T02:06:25.933Z,8.10
2019-02-21T02:08:54.533Z,8.10
2019-02-21T02:11:23.102Z,8.10
2019-02-21T02:13:51.705Z,8.10
2019-02-21T02:16:20.270Z,8.10
2019-02-21T02:18:48.858Z,8.10
2019-02-21T02:21:17.489Z,8.10
2019-02-21T02:23:46.314Z,8.10
2019-02-21T02:26:14.909Z,8.10
2019-02-21T02:28:43.514Z,8.10
2019-02-21T02:31:22.150Z,8.10
2019-02-21T02:33:42.330Z,8.20
2019-02-21T02:36:11.016Z,8.20
2019-02-21T02:38:39.576Z,8.10
2019-02-21T02:41:08.262Z,8.10
2019-02-21T02:43:36.944Z,8.10
2019-02-21T02:46:05.534Z,8.10
2019-02-21T02:48:34.141Z,8.10
2019-02-21T02:51:02.749Z,8.10
2019-02-21T02:53:31.324Z,8.20
2019-02-21T02:55:59.883Z,8.20
2019-02-21T02:58:28.572Z,8.10
2019-02-21T03:00:57.148Z,8.10
2019-02-21T03:03:25.744Z,8.10
2019-02-21T03:05:54.313Z,8.10
2019-02-21T03:08:22.903Z,8.20
2019-02-21T03:10:51.498Z,8.20
2019-02-21T03:13:20.078Z,8.20
2019-02-21T03:15:48.659Z,8.20
2019-02-21T03:18:17.221Z,8.20
2019-02-21T03:20:46.776Z,8.20
2019-02-21T03:23:15.332Z,8.20
2019-02-21T03:25:43.897Z,8.20
2019-02-21T03:28:12.497Z,8.20
2019-02-21T03:30:41.074Z,8.20
2019-02-21T03:33:09.635Z,8.20
2019-02-21T03:35:38.246Z,8.20
2019-02-21T03:38:06.805Z,8.20
2019-02-21T03:40:35.706Z,8.20
2019-02-21T03:43:04.968Z,8.10
2019-02-21T03:45:33.602Z,8.10
2019-02-21T03:48:02.197Z,8.10
2019-02-21T03:50:30.768Z,8.20
2019-02-21T03:52:59.360Z,8.10
2019-02-21T03:55:28.006Z,8.10
2019-02-21T03:57:56.584Z,8.10
2019-02-21T04:00:25.181Z,8.20
2019-02-21T04:02:53.749Z,8.10
2019-02-21T04:05:22.433Z,8.10
2019-02-21T04:07:51.102Z,8.10
2019-02-21T04:10:19.670Z,8.10
2019-02-21T04:12:48.438Z,8.10
2019-02-21T04:15:17.827Z,8.10
2019-02-21T04:17:46.808Z,8.00
2019-02-21T04:20:15.414Z,8.00
2019-02-21T04:22:44.026Z,7.80
2019-02-21T04:25:12.590Z,8.00
2019-02-21T04:27:41.161Z,8.00
2019-02-21T04:30:09.960Z,8.00
2019-02-21T04:32:38.602Z,7.90
2019-02-21T04:35:07.241Z,7.90
2019-02-21T04:37:35.866Z,7.90
2019-02-21T04:40:05.700Z,7.90
2019-02-21T04:42:34.263Z,7.90
2019-02-21T04:45:02.914Z,7.80
2019-02-21T04:47:31.509Z,7.80
2019-02-21T04:50:00.127Z,7.80
2019-02-21T04:55:11.539Z,7.80
2019-02-21T04:57:40.489Z,7.80
2019-02-21T05:00:11.624Z,7.80
2019-02-21T05:02:40.323Z,7.80
2019-02-21T05:05:08.956Z,7.90
2019-02-21T05:07:37.553Z,7.90
2019-02-21T05:10:07.162Z,7.80
2019-02-21T05:12:35.748Z,7.80
2019-02-21T05:15:05.016Z,7.90
2019-02-21T05:17:33.712Z,7.80
2019-02-21T05:20:02.277Z,7.80
2019-02-21T05:22:30.873Z,7.80
2019-02-21T05:24:59.439Z,7.80
2019-02-21T05:27:29.820Z,7.80
2019-02-21T05:29:58.383Z,7.80
2019-02-21T05:32:40.672Z,7.70
2019-02-21T05:35:06.094Z,7.70
2019-02-21T05:37:41.873Z,7.70
2019-02-21T05:40:14.816Z,7.90
2019-02-21T05:42:50.973Z,8.00
2019-02-21T05:45:37.151Z,7.90
2019-02-21T05:48:25.246Z,7.60
2019-02-21T05:50:58.257Z,7.80
2019-02-21T05:53:28.508Z,7.80
2019-02-21T05:56:13.639Z,7.70
2019-02-21T05:58:43.829Z,7.70
2019-02-21T06:01:19.867Z,7.70
2019-02-21T06:03:52.989Z,7.70
2019-02-21T06:06:23.205Z,7.70
2019-02-21T06:08:53.437Z,7.70
2019-02-21T06:11:23.663Z,7.70
2019-02-21T06:14:08.737Z,7.70
2019-02-21T06:16:38.939Z,7.80
2019-02-21T06:19:17.878Z,7.80
2019-02-21T06:21:51.189Z,7.70
2019-02-21T06:24:27.904Z,7.70
2019-02-21T06:27:01.051Z,7.70
2019-02-21T06:29:33.891Z,7.70
2019-02-21T06:32:01.520Z,7.70
2019-02-21T06:34:31.752Z,7.60
2019-02-21T06:37:00.382Z,7.60
2019-02-21T06:39:28.973Z,7.60
2019-02-21T06:41:59.976Z,7.60
2019-02-21T06:44:27.810Z,7.60
2019-02-21T06:46:56.411Z,7.50
2019-02-21T06:49:32.046Z,7.50
2019-02-21T06:51:55.232Z,7.50
2019-02-21T06:54:24.016Z,7.60
2019-02-21T06:56:52.577Z,7.60
2019-02-21T06:59:23.621Z,7.60
2019-02-21T07:01:52.077Z,7.50
2019-02-21T07:04:20.643Z,7.50
2019-02-21T07:06:49.241Z,7.50
2019-02-21T07:09:17.804Z,7.50
2019-02-21T07:11:46.365Z,7.50
2019-02-21T07:14:14.982Z,7.50
2019-02-21T07:16:43.540Z,7.60
2019-02-21T07:19:12.111Z,7.60
2019-02-21T07:21:40.723Z,7.60
2019-02-21T07:24:09.281Z,7.70
2019-02-21T07:26:37.876Z,7.70
2019-02-21T07:29:06.445Z,7.70
2019-02-21T07:31:35.005Z,7.70
2019-02-21T07:34:03.604Z,7.80
2019-02-21T07:36:32.185Z,7.90
2019-02-21T07:39:13.650Z,8.00
2019-02-21T07:41:31.278Z,8.10
2019-02-21T07:43:59.802Z,8.20
2019-02-21T07:46:28.401Z,8.20
2019-02-21T07:48:56.968Z,8.10
2019-02-21T07:51:25.528Z,8.10
2019-02-21T07:53:54.109Z,8.20
2019-02-21T07:56:22.683Z,8.20
2019-02-21T07:58:52.170Z,8.20
2019-02-21T08:01:20.769Z,8.20
2019-02-21T08:03:49.367Z,8.20
2019-02-21T08:06:20.039Z,8.20
2019-02-21T08:08:48.174Z,8.30
2019-02-21T08:11:16.737Z,8.30
2019-02-21T08:13:45.400Z,8.40
2019-02-21T08:16:14.000Z,8.40
2019-02-21T08:18:42.589Z,8.50
2019-02-21T08:21:11.156Z,8.40
2019-02-21T08:23:50.001Z,8.40
2019-02-21T08:26:10.124Z,8.40
2019-02-21T08:28:38.734Z,8.40
2019-02-21T08:31:07.293Z,8.30
2019-02-21T08:33:39.995Z,8.30
2019-02-21T08:36:08.654Z,8.30
2019-02-21T08:38:37.221Z,8.40
2019-02-21T08:41:05.793Z,8.40
2019-02-21T08:43:37.111Z,8.40
2019-02-21T08:46:04.630Z,8.40
2019-02-21T08:48:33.197Z,8.50
2019-02-21T08:51:01.767Z,8.50
2019-02-21T08:53:30.513Z,8.50
2019-02-21T08:55:59.073Z,8.60
2019-02-21T08:58:27.637Z,8.60
2019-02-21T09:00:56.302Z,8.50
2019-02-21T09:03:25.488Z,8.50
2019-02-21T09:05:54.104Z,8.50
2019-02-21T09:08:33.209Z,8.50
2019-02-21T09:10:52.905Z,8.60
2019-02-21T09:13:23.692Z,8.60
2019-02-21T09:15:51.855Z,8.70
2019-02-21T09:18:20.568Z,8.80
2019-02-21T09:20:49.122Z,8.90
2019-02-21T09:23:17.714Z,9.00
2019-02-21T09:25:46.280Z,9.20
2019-02-21T09:28:15.815Z,9.40
2019-02-21T09:30:44.596Z,9.60
2019-02-21T09:33:17.401Z,9.60
2019-02-21T09:35:43.403Z,9.70
2019-02-21T09:38:12.001Z,9.60
2019-02-21T09:40:42.645Z,9.60
2019-02-21T09:43:10.761Z,9.50
2019-02-21T09:45:39.425Z,9.60
2019-02-21T09:48:07.988Z,9.80
2019-02-21T09:50:36.549Z,10.00
2019-02-21T09:53:05.250Z,10.00
2019-02-21T09:55:33.815Z,10.20
2019-02-21T09:58:02.385Z,10.40
2019-02-21T10:00:31.017Z,10.70
2019-02-21T10:02:59.581Z,10.80
2019-02-21T10:05:28.182Z,10.70
2019-02-21T10:07:58.249Z,10.70
2019-02-21T10:10:26.788Z,10.70
2019-02-21T10:12:56.333Z,10.40
2019-02-21T10:15:24.892Z,10.30
2019-02-21T10:17:53.478Z,10.30
2019-02-21T10:20:22.521Z,10.30
2019-02-21T10:22:51.085Z,10.20
2019-02-21T10:25:23.065Z,10.30
2019-02-21T10:27:51.905Z,10.20
2019-02-21T10:30:22.309Z,10.20
2019-02-21T10:32:50.960Z,10.20
2019-02-21T10:35:19.640Z,10.20
2019-02-21T10:37:48.333Z,10.20
2019-02-21T10:40:17.139Z,10.10
2019-02-21T10:42:45.804Z,10.00
2019-02-21T10:45:16.893Z,10.00
2019-02-21T10:47:45.459Z,10.10
2019-02-21T10:50:18.929Z,10.10
2019-02-21T10:52:48.044Z,10.20
2019-02-21T10:55:17.444Z,10.30
2019-02-21T10:57:46.159Z,10.40
2019-02-21T11:00:20.817Z,10.40
2019-02-21T11:02:49.384Z,10.40
2019-02-21T11:05:18.061Z,10.20
2019-02-21T11:07:46.662Z,10.30
2019-02-21T11:10:21.245Z,10.40
2019-02-21T11:12:49.809Z,10.40
2019-02-21T11:15:20.463Z,10.30
2019-02-21T11:17:49.014Z,10.20
2019-02-21T11:20:18.654Z,10.20
2019-02-21T11:22:47.284Z,10.30
2019-02-21T11:25:16.081Z,10.30
2019-02-21T11:27:44.652Z,10.30
2019-02-21T11:30:20.224Z,10.40
2019-02-21T11:32:49.045Z,10.40
2019-02-21T11:35:17.669Z,10.40
2019-02-21T11:37:47.387Z,10.40
2019-02-21T11:40:17.280Z,10.50
2019-02-21T11:42:46.131Z,10.50
2019-02-21T11:45:18.689Z,10.60
2019-02-21T11:47:47.294Z,10.60
2019-02-21T11:50:19.431Z,10.60
2019-02-21T11:52:48.105Z,10.50
2019-02-21T11:55:28.486Z,10.60
2019-02-21T11:57:57.282Z,10.60
2019-02-21T12:00:28.254Z,10.70
2019-02-21T12:02:57.449Z,10.70
2019-02-21T12:05:31.506Z,10.70
2019-02-21T12:07:57.089Z,10.70
2019-02-21T12:10:25.694Z,10.60
2019-02-21T12:12:54.272Z,10.60
2019-02-21T12:15:22.886Z,10.50
2019-02-21T12:17:51.440Z,10.50
2019-02-21T12:20:20.577Z,10.40
2019-02-21T12:22:49.141Z,10.40
2019-02-21T12:25:24.514Z,10.40
2019-02-21T12:27:53.145Z,10.50
2019-02-21T12:30:21.770Z,10.50
2019-02-21T12:32:50.521Z,10.40
2019-02-21T12:35:29.284Z,10.30
2019-02-21T12:37:49.341Z,10.40
2019-02-21T12:40:19.952Z,10.40
2019-02-21T12:42:48.533Z,10.40
2019-02-21T12:45:19.174Z,10.50
2019-02-21T12:47:52.795Z,10.60
2019-02-21T12:50:17.981Z,10.50
2019-02-21T12:52:46.749Z,10.50
2019-02-21T12:55:26.421Z,10.60
2019-02-21T12:57:45.633Z,10.50
2019-02-21T13:00:21.717Z,10.60
2019-02-21T13:02:50.311Z,10.60
2019-02-21T13:05:18.892Z,10.60
2019-02-21T13:07:47.476Z,10.60
2019-02-21T13:10:21.103Z,10.60
2019-02-21T13:12:49.775Z,10.60
2019-02-21T13:15:18.429Z,10.60
2019-02-21T13:17:47.021Z,10.60
2019-02-21T13:20:15.742Z,10.70
2019-02-21T13:22:44.290Z,10.60
2019-02-21T13:25:15.197Z,10.60
2019-02-21T13:27:43.842Z,10.70
2019-02-21T13:30:19.628Z,10.60
2019-02-21T13:32:48.279Z,10.60
2019-02-21T13:35:16.794Z,10.60
2019-02-21T13:37:45.391Z,10.50
2019-02-21T13:40:15.976Z,10.50
2019-02-21T13:42:44.621Z,10.50
2019-02-21T13:45:17.409Z,10.50
2019-02-21T13:47:45.375Z,10.40
2019-02-21T13:50:18.380Z,10.40
2019-02-21T13:52:47.057Z,10.40
2019-02-21T13:55:16.064Z,10.40
2019-02-21T13:57:45.214Z,10.40
2019-02-21T14:00:19.566Z,10.50
2019-02-21T14:02:48.836Z,10.50
2019-02-21T14:05:18.183Z,10.50
2019-02-21T14:07:46.813Z,10.50
2019-02-21T14:10:15.522Z,10.50
2019-02-21T14:12:44.227Z,10.50
2019-02-21T14:15:15.614Z,10.40
2019-02-21T14:17:46.518Z,10.40
2019-02-21T14:20:14.905Z,10.30
2019-02-21T14:22:43.612Z,10.40
2019-02-21T14:25:12.184Z,10.30
2019-02-21T14:27:40.748Z,10.30
2019-02-21T14:30:12.577Z,10.30
2019-02-21T14:32:41.173Z,10.30
2019-02-21T14:35:11.745Z,10.20
2019-02-21T14:37:40.316Z,10.20
2019-02-21T14:40:10.896Z,10.20
2019-02-21T14:42:39.469Z,10.20
2019-02-21T14:45:16.688Z,10.20
2019-02-21T14:47:45.280Z,10.10
2019-02-21T14:50:13.906Z,10.10
2019-02-21T14:52:42.515Z,10.10
2019-02-21T14:55:15.362Z,10.10
2019-02-21T14:57:43.997Z,10.10
2019-02-21T15:00:15.913Z,10.10
2019-02-21T15:02:44.473Z,10.10
2019-02-21T15:05:13.218Z,10.10
2019-02-21T15:07:41.736Z,10.00
2019-02-21T15:10:11.062Z,10.00
2019-02-21T15:12:39.674Z,10.00
2019-02-21T15:15:21.964Z,10.00
2019-02-21T15:17:50.201Z,10.00
2019-02-21T15:20:18.856Z,9.90
2019-02-21T15:22:47.856Z,9.90
2019-02-21T15:25:16.451Z,9.90
2019-02-21T15:27:45.053Z,9.80
2019-02-21T15:30:19.634Z,9.80
2019-02-21T15:32:48.638Z,9.80
2019-02-21T15:35:19.406Z,9.80
2019-02-21T15:37:47.843Z,9.80
2019-02-21T15:40:16.758Z,9.80
2019-02-21T15:42:45.813Z,9.80
2019-02-21T15:45:24.189Z,9.80
2019-02-21T15:47:53.062Z,9.80
2019-02-21T15:50:21.691Z,9.80
2019-02-21T15:52:51.425Z,9.80
2019-02-21T15:55:21.182Z,9.80
2019-02-21T15:57:50.282Z,9.70
2019-02-21T16:00:23.943Z,9.70
2019-02-21T16:02:52.510Z,9.70
2019-02-21T16:05:21.417Z,9.70
2019-02-21T16:07:49.954Z,9.70
2019-02-21T16:10:23.529Z,9.70
2019-02-21T16:12:52.557Z,9.70
2019-02-21T16:15:21.843Z,9.70
2019-02-21T16:17:50.517Z,9.70
2019-02-21T16:20:20.305Z,9.60
2019-02-21T16:22:49.319Z,9.60
2019-02-21T16:25:29.141Z,9.60
2019-02-21T16:27:57.708Z,9.50
2019-02-21T16:30:26.564Z,9.70
2019-02-21T16:32:55.249Z,9.70
2019-02-21T16:35:23.862Z,9.90
2019-02-21T16:37:52.631Z,9.80
2019-02-21T16:40:21.748Z,9.80
2019-02-21T16:42:50.766Z,9.70
2019-02-21T16:45:20.472Z,9.70
2019-02-21T16:47:49.090Z,9.70
2019-02-21T16:50:28.854Z,9.70
2019-02-21T16:52:48.213Z,9.60
2019-02-21T16:55:21.653Z,9.60
2019-02-21T16:57:50.474Z,9.60
2019-02-21T17:00:21.502Z,9.60
2019-02-21T17:02:50.168Z,9.60
2019-02-21T17:05:18.956Z,9.60
2019-02-21T17:07:47.657Z,9.60
2019-02-21T17:10:17.929Z,9.60
2019-02-21T17:12:46.552Z,9.50
2019-02-21T17:15:18.769Z,9.60
2019-02-21T17:17:47.605Z,9.50
2019-02-21T17:20:23.445Z,9.50
2019-02-21T17:22:52.085Z,9.50
2019-02-21T17:25:20.719Z,9.50
2019-02-21T17:27:50.890Z,9.50
2019-02-21T17:30:20.017Z,9.50
2019-02-21T17:32:48.887Z,9.50
2019-02-21T17:35:17.560Z,9.40
2019-02-21T17:37:46.476Z,9.50
2019-02-21T17:40:22.760Z,9.50
2019-02-21T17:42:51.492Z,9.40
2019-02-21T17:45:20.289Z,9.40
2019-02-21T17:47:48.911Z,9.40
2019-02-21T17:50:18.229Z,9.40
2019-02-21T17:52:46.985Z,9.40
2019-02-21T17:55:16.617Z,9.30
2019-02-21T17:57:45.249Z,9.40
2019-02-21T18:00:23.220Z,9.30
2019-02-21T18:02:51.897Z,9.30
2019-02-21T18:05:20.637Z,9.30
2019-02-21T18:07:49.189Z,9.30
2019-02-21T18:10:18.493Z,9.20
2019-02-21T18:12:47.160Z,9.20
2019-02-21T18:15:16.970Z,9.20
2019-02-21T18:17:45.568Z,9.20
2019-02-21T18:20:15.220Z,9.20
2019-02-21T18:22:43.876Z,9.10
2019-02-21T18:25:24.476Z,9.10
2019-02-21T18:27:53.037Z,9.10
2019-02-21T18:30:21.863Z,9.10
2019-02-21T18:32:50.445Z,9.10
2019-02-21T18:35:19.192Z,9.10
2019-02-21T18:37:48.061Z,9.00
2019-02-21T18:40:21.881Z,9.00
2019-02-21T18:42:50.530Z,9.00
2019-02-21T18:45:19.098Z,9.00
2019-02-21T18:47:47.698Z,9.00
2019-02-21T18:50:16.397Z,9.00
2019-02-21T18:52:45.101Z,9.00
2019-02-21T18:55:13.829Z,9.00
2019-02-21T18:57:42.573Z,8.90
2019-02-21T19:00:20.089Z,9.00
2019-02-21T19:02:48.696Z,9.00
2019-02-21T19:05:17.282Z,9.00
2019-02-21T19:07:46.639Z,9.00
2019-02-21T19:10:19.788Z,9.00
2019-02-21T19:12:48.397Z,9.00
2019-02-21T19:15:19.408Z,8.90
2019-02-21T19:17:48.048Z,8.90
2019-02-21T19:20:18.377Z,8.90
2019-02-21T19:22:47.017Z,8.90
2019-02-21T19:25:15.687Z,8.90
2019-02-21T19:27:44.278Z,8.90
2019-02-21T19:30:30.728Z,8.90
2019-02-21T19:32:59.432Z,8.90
2019-02-21T19:35:27.995Z,8.80
2019-02-21T19:37:56.596Z,8.80
2019-02-21T19:40:25.309Z,8.80
2019-02-21T19:42:53.978Z,8.80
2019-02-21T19:45:22.725Z,8.80
2019-02-21T19:47:51.425Z,8.80
2019-02-21T19:50:20.217Z,8.80
2019-02-21T19:52:48.855Z,8.80
2019-02-21T19:55:17.905Z,8.80
2019-02-21T19:57:46.579Z,8.80
2019-02-21T20:00:18.728Z,8.80
2019-02-21T20:02:47.649Z,8.80
2019-02-21T20:05:16.278Z,8.70
2019-02-21T20:07:45.112Z,8.70
2019-02-21T20:10:14.166Z,8.70
2019-02-21T20:12:42.802Z,8.70
2019-02-21T20:15:12.225Z,8.70
2019-02-21T20:17:40.876Z,8.70
2019-02-21T20:20:12.663Z,8.60
2019-02-21T20:22:41.221Z,8.70
2019-02-21T20:25:09.973Z,8.60
2019-02-21T20:27:38.548Z,8.60
2019-02-21T20:30:10.253Z,8.70
2019-02-21T20:32:38.940Z,8.70
2019-02-21T20:35:07.676Z,8.60
2019-02-21T20:37:36.297Z,8.60
2019-02-21T20:40:07.565Z,8.60
2019-02-21T20:42:36.254Z,8.60
2019-02-21T20:45:12.905Z,8.60
2019-02-21T20:47:41.689Z,8.60
2019-02-21T20:50:11.876Z,8.60
2019-02-21T20:52:40.597Z,8.60
2019-02-21T20:55:10.693Z,8.60
2019-02-21T20:57:39.307Z,8.60
2019-02-21T21:00:18.543Z,8.50
2019-02-21T21:02:47.096Z,8.50
2019-02-21T21:05:15.772Z,8.50
2019-02-21T21:07:44.338Z,8.50
2019-02-21T21:10:15.425Z,8.40
2019-02-21T21:12:44.059Z,8.40
2019-02-21T21:15:14.105Z,8.40
2019-02-21T21:17:42.837Z,8.40
2019-02-21T21:20:17.371Z,8.40
2019-02-21T21:22:46.206Z,8.40
2019-02-21T21:25:18.882Z,8.30
2019-02-21T21:27:47.663Z,8.30
2019-02-21T21:30:17.583Z,8.30
2019-02-21T21:32:46.224Z,8.30
2019-02-21T21:35:14.892Z,8.30
2019-02-21T21:37:43.467Z,8.30
2019-02-21T21:40:18.850Z,8.30
2019-02-21T21:42:47.480Z,8.30
2019-02-21T21:45:18.943Z,8.30
2019-02-21T21:47:47.537Z,8.30
2019-02-21T21:50:19.811Z,8.30
2019-02-21T21:52:48.542Z,8.30
2019-02-21T21:55:17.248Z,8.30
2019-02-21T21:57:45.994Z,8.30
2019-02-21T22:00:22.723Z,8.30
2019-02-21T22:02:51.361Z,8.30
2019-02-21T22:05:20.220Z,8.30
2019-02-21T22:07:49.495Z,8.30
2019-02-21T22:10:18.428Z,8.20
2019-02-21T22:12:47.009Z,8.20
2019-02-21T22:15:18.682Z,8.30
2019-02-21T22:17:47.243Z,8.30
2019-02-21T22:20:15.920Z,8.30
2019-02-21T22:22:44.477Z,8.20
2019-02-21T22:25:14.660Z,8.20
2019-02-21T22:27:43.185Z,8.20
2019-02-21T22:30:14.481Z,8.20
2019-02-21T22:32:43.048Z,8.10
2019-02-21T22:35:11.745Z,8.10
2019-02-21T22:37:40.342Z,8.10
2019-02-21T22:40:14.109Z,8.10
2019-02-21T22:42:42.676Z,8.10
2019-02-21T22:45:11.485Z,8.10
2019-02-21T22:47:40.225Z,8.10
2019-02-21T22:50:11.504Z,8.10
2019-02-21T22:52:40.105Z,8.00
2019-02-21T22:55:10.300Z,8.00
2019-02-21T22:57:39.112Z,8.00
2019-02-21T23:00:31.540Z,8.00
2019-02-21T23:03:01.123Z,8.00
2019-02-21T23:06:05.557Z,8.00
2019-02-21T23:08:43.599Z,8.00
2019-02-21T23:11:12.346Z,8.00
2019-02-21T23:13:41.059Z,8.00
2019-02-21T23:16:09.720Z,8.00
2019-02-21T23:18:38.431Z,8.00
2019-02-21T23:21:07.703Z,8.00
2019-02-21T23:23:36.265Z,8.00
2019-02-21T23:26:04.836Z,8.00
2019-02-21T23:28:33.433Z,8.00
2019-02-21T23:31:02.009Z,8.00
2019-02-21T23:33:32.034Z,8.00
2019-02-21T23:36:00.912Z,8.00
2019-02-21T23:38:29.482Z,8.00
2019-02-21T23:40:58.045Z,8.00
2019-02-21T23:43:26.727Z,8.00
2019-02-21T23:45:55.354Z,8.00
2019-02-21T23:48:23.926Z,8.00
2019-02-21T23:50:52.518Z,8.00
2019-02-21T23:53:21.257Z,8.00
2019-02-21T23:55:49.837Z,8.00
2019-02-21T23:58:18.401Z,8.00
